sensor_id;sensor_type;location;lat;lon;timestamp;temperature;humidity
6293;DHT22;3179;54.350;10.102;2024-03-06T00:00:37;6.40;99.90
6293;DHT22;3179;54.350;10.102;2024-03-06T00:03:04;6.40;99.90
6293;DHT22;3179;54.350;10.102;2024-03-06T00:05:32;6.40;99.90
6293;DHT22;3179;54.350;10.102;2024-03-06T00:07:59;6.40;99.90
6293;DHT22;3179;54.350;10.102;2024-03-06T00:10:28;6.40;99.90
6293;DHT22;3179;54.350;10.102;2024-03-06T00:12:55;6.40;99.90
6293;DHT22;3179;54.350;10.102;2024-03-06T00:15:22;6.40;99.90
6293;DHT22;3179;54.350;10.102;2024-03-06T00:17:49;6.30;99.90
6293;DHT22;3179;54.350;10.102;2024-03-06T00:20:16;6.30;99.90
6293;DHT22;3179;54.350;10.102;2024-03-06T00:22:44;6.30;99.90
6293;DHT22;3179;54.350;10.102;2024-03-06T00:25:11;6.30;99.90
6293;DHT22;3179;54.350;10.102;2024-03-06T00:27:38;6.30;99.90
6293;DHT22;3179;54.350;10.102;2024-03-06T00:30:07;6.30;99.90
6293;DHT22;3179;54.350;10.102;2024-03-06T00:32:34;6.30;99.90
6293;DHT22;3179;54.350;10.102;2024-03-06T00:35:01;6.30;99.90
6293;DHT22;3179;54.350;10.102;2024-03-06T00:37:29;6.30;99.90
6293;DHT22;3179;54.350;10.102;2024-03-06T00:39:57;6.30;99.90
6293;DHT22;3179;54.350;10.102;2024-03-06T00:42:24;6.30;99.90
6293;DHT22;3179;54.350;10.102;2024-03-06T00:44:51;6.30;99.90
6293;DHT22;3179;54.350;10.102;2024-03-06T00:47:18;6.30;99.90
6293;DHT22;3179;54.350;10.102;2024-03-06T00:49:44;6.30;99.90
6293;DHT22;3179;54.350;10.102;2024-03-06T00:52:11;6.30;99.90
6293;DHT22;3179;54.350;10.102;2024-03-06T00:54:38;6.30;99.90
6293;DHT22;3179;54.350;10.102;2024-03-06T00:57:06;6.30;99.90
6293;DHT22;3179;54.350;10.102;2024-03-06T00:59:33;6.20;99.90
6293;DHT22;3179;54.350;10.102;2024-03-06T01:02:00;6.20;99.90
6293;DHT22;3179;54.350;10.102;2024-03-06T01:04:27;6.20;99.90
6293;DHT22;3179;54.350;10.102;2024-03-06T01:06:54;6.20;99.90
6293;DHT22;3179;54.350;10.102;2024-03-06T01:09:21;6.20;99.90
6293;DHT22;3179;54.350;10.102;2024-03-06T01:11:48;6.20;99.90
6293;DHT22;3179;54.350;10.102;2024-03-06T01:14:16;6.20;99.90
6293;DHT22;3179;54.350;10.102;2024-03-06T01:16:43;6.20;99.90
6293;DHT22;3179;54.350;10.102;2024-03-06T01:19:10;6.20;99.90
6293;DHT22;3179;54.350;10.102;2024-03-06T01:21:38;6.20;99.90
6293;DHT22;3179;54.350;10.102;2024-03-06T01:24:05;6.20;99.90
6293;DHT22;3179;54.350;10.102;2024-03-06T01:26:32;6.20;99.90
6293;DHT22;3179;54.350;10.102;2024-03-06T01:28:59;6.20;99.90
6293;DHT22;3179;54.350;10.102;2024-03-06T01:31:27;6.20;99.90
6293;DHT22;3179;54.350;10.102;2024-03-06T01:33:54;6.20;99.90
6293;DHT22;3179;54.350;10.102;2024-03-06T01:36:21;6.30;99.90
6293;DHT22;3179;54.350;10.102;2024-03-06T01:38:47;6.30;99.90
6293;DHT22;3179;54.350;10.102;2024-03-06T01:41:15;6.20;99.90
6293;DHT22;3179;54.350;10.102;2024-03-06T01:43:41;6.20;99.90
6293;DHT22;3179;54.350;10.102;2024-03-06T01:46:08;6.20;99.90
6293;DHT22;3179;54.350;10.102;2024-03-06T01:48:37;6.20;99.90
6293;DHT22;3179;54.350;10.102;2024-03-06T01:51:05;6.20;99.90
6293;DHT22;3179;54.350;10.102;2024-03-06T01:53:32;6.20;99.90
6293;DHT22;3179;54.350;10.102;2024-03-06T01:55:59;6.20;99.90
6293;DHT22;3179;54.350;10.102;2024-03-06T01:58:27;6.20;99.90
6293;DHT22;3179;54.350;10.102;2024-03-06T02:00:54;6.20;99.90
6293;DHT22;3179;54.350;10.102;2024-03-06T02:03:21;6.20;99.90
6293;DHT22;3179;54.350;10.102;2024-03-06T02:05:52;6.20;99.90
6293;DHT22;3179;54.350;10.102;2024-03-06T02:08:19;6.10;99.90
6293;DHT22;3179;54.350;10.102;2024-03-06T02:10:46;6.20;99.90
6293;DHT22;3179;54.350;10.102;2024-03-06T02:13:13;6.20;99.90
6293;DHT22;3179;54.350;10.102;2024-03-06T02:15:40;6.20;99.90
6293;DHT22;3179;54.350;10.102;2024-03-06T02:18:08;6.20;99.90
6293;DHT22;3179;54.350;10.102;2024-03-06T02:20:38;6.20;99.90
6293;DHT22;3179;54.350;10.102;2024-03-06T02:23:05;6.20;99.90
6293;DHT22;3179;54.350;10.102;2024-03-06T02:25:33;6.20;99.90
6293;DHT22;3179;54.350;10.102;2024-03-06T02:28:00;6.10;99.90
6293;DHT22;3179;54.350;10.102;2024-03-06T02:30:27;6.20;99.90
6293;DHT22;3179;54.350;10.102;2024-03-06T02:32:56;6.20;99.90
6293;DHT22;3179;54.350;10.102;2024-03-06T02:35:23;6.10;99.90
6293;DHT22;3179;54.350;10.102;2024-03-06T02:37:51;6.10;99.90
6293;DHT22;3179;54.350;10.102;2024-03-06T02:40:18;6.20;99.90
6293;DHT22;3179;54.350;10.102;2024-03-06T02:42:45;6.20;99.90
6293;DHT22;3179;54.350;10.102;2024-03-06T02:45:11;6.10;99.90
6293;DHT22;3179;54.350;10.102;2024-03-06T02:47:39;6.10;99.90
6293;DHT22;3179;54.350;10.102;2024-03-06T02:50:07;6.20;99.90
6293;DHT22;3179;54.350;10.102;2024-03-06T02:52:34;6.20;99.90
6293;DHT22;3179;54.350;10.102;2024-03-06T02:55:02;6.20;99.90
6293;DHT22;3179;54.350;10.102;2024-03-06T02:57:29;6.10;99.90
6293;DHT22;3179;54.350;10.102;2024-03-06T02:59:56;6.10;99.90
6293;DHT22;3179;54.350;10.102;2024-03-06T03:02:23;6.10;99.90
6293;DHT22;3179;54.350;10.102;2024-03-06T03:04:50;6.20;99.90
6293;DHT22;3179;54.350;10.102;2024-03-06T03:07:17;6.10;99.90
6293;DHT22;3179;54.350;10.102;2024-03-06T03:09:44;6.20;99.90
6293;DHT22;3179;54.350;10.102;2024-03-06T03:12:14;6.20;99.90
6293;DHT22;3179;54.350;10.102;2024-03-06T03:14:40;6.20;99.90
6293;DHT22;3179;54.350;10.102;2024-03-06T03:17:08;6.20;99.90
6293;DHT22;3179;54.350;10.102;2024-03-06T03:19:35;6.20;99.90
6293;DHT22;3179;54.350;10.102;2024-03-06T03:22:05;6.10;99.90
6293;DHT22;3179;54.350;10.102;2024-03-06T03:24:33;6.10;99.90
6293;DHT22;3179;54.350;10.102;2024-03-06T03:27:00;6.10;99.90
6293;DHT22;3179;54.350;10.102;2024-03-06T03:29:29;6.20;99.90
6293;DHT22;3179;54.350;10.102;2024-03-06T03:31:56;6.10;99.90
6293;DHT22;3179;54.350;10.102;2024-03-06T03:34:23;6.10;99.90
6293;DHT22;3179;54.350;10.102;2024-03-06T03:36:50;6.10;99.90
6293;DHT22;3179;54.350;10.102;2024-03-06T03:39:16;6.20;99.90
6293;DHT22;3179;54.350;10.102;2024-03-06T03:41:46;6.10;99.90
6293;DHT22;3179;54.350;10.102;2024-03-06T03:44:13;6.10;99.90
6293;DHT22;3179;54.350;10.102;2024-03-06T03:46:42;6.10;99.90
6293;DHT22;3179;54.350;10.102;2024-03-06T03:49:09;6.20;99.90
6293;DHT22;3179;54.350;10.102;2024-03-06T03:51:36;6.20;99.90
6293;DHT22;3179;54.350;10.102;2024-03-06T03:54:04;6.10;99.90
6293;DHT22;3179;54.350;10.102;2024-03-06T03:56:31;6.20;99.90
6293;DHT22;3179;54.350;10.102;2024-03-06T03:58:59;6.10;99.90
6293;DHT22;3179;54.350;10.102;2024-03-06T04:01:25;6.10;99.90
6293;DHT22;3179;54.350;10.102;2024-03-06T04:03:54;6.10;99.90
6293;DHT22;3179;54.350;10.102;2024-03-06T04:06:20;6.20;99.90
6293;DHT22;3179;54.350;10.102;2024-03-06T04:08:47;6.20;99.90
6293;DHT22;3179;54.350;10.102;2024-03-06T04:11:15;6.20;99.90
6293;DHT22;3179;54.350;10.102;2024-03-06T04:13:42;6.10;99.90
6293;DHT22;3179;54.350;10.102;2024-03-06T04:16:08;6.10;99.90
6293;DHT22;3179;54.350;10.102;2024-03-06T04:18:35;6.10;99.90
6293;DHT22;3179;54.350;10.102;2024-03-06T04:21:05;6.10;99.90
6293;DHT22;3179;54.350;10.102;2024-03-06T04:23:32;6.10;99.90
6293;DHT22;3179;54.350;10.102;2024-03-06T04:25:59;6.10;99.90
6293;DHT22;3179;54.350;10.102;2024-03-06T04:28:26;6.10;99.90
6293;DHT22;3179;54.350;10.102;2024-03-06T04:30:53;6.20;99.90
6293;DHT22;3179;54.350;10.102;2024-03-06T04:33:20;6.20;99.90
6293;DHT22;3179;54.350;10.102;2024-03-06T04:35:46;6.10;99.90
6293;DHT22;3179;54.350;10.102;2024-03-06T04:38:15;6.10;99.90
6293;DHT22;3179;54.350;10.102;2024-03-06T04:40:42;6.20;99.90
6293;DHT22;3179;54.350;10.102;2024-03-06T04:43:09;6.10;99.90
6293;DHT22;3179;54.350;10.102;2024-03-06T04:45:35;6.10;99.90
6293;DHT22;3179;54.350;10.102;2024-03-06T04:48:02;6.10;99.90
6293;DHT22;3179;54.350;10.102;2024-03-06T04:50:29;6.20;99.90
6293;DHT22;3179;54.350;10.102;2024-03-06T04:52:56;6.10;99.90
6293;DHT22;3179;54.350;10.102;2024-03-06T04:55:24;6.10;99.90
6293;DHT22;3179;54.350;10.102;2024-03-06T04:57:52;6.10;99.90
6293;DHT22;3179;54.350;10.102;2024-03-06T05:00:19;6.10;99.90
6293;DHT22;3179;54.350;10.102;2024-03-06T05:02:46;6.10;99.90
6293;DHT22;3179;54.350;10.102;2024-03-06T05:05:14;6.20;99.90
6293;DHT22;3179;54.350;10.102;2024-03-06T05:07:41;6.10;99.90
6293;DHT22;3179;54.350;10.102;2024-03-06T05:10:09;6.10;99.90
6293;DHT22;3179;54.350;10.102;2024-03-06T05:12:37;6.10;99.90
6293;DHT22;3179;54.350;10.102;2024-03-06T05:15:05;6.10;99.90
6293;DHT22;3179;54.350;10.102;2024-03-06T05:17:32;6.10;99.90
6293;DHT22;3179;54.350;10.102;2024-03-06T05:19:59;6.10;99.90
6293;DHT22;3179;54.350;10.102;2024-03-06T05:22:26;6.10;99.90
6293;DHT22;3179;54.350;10.102;2024-03-06T05:24:53;6.10;99.90
6293;DHT22;3179;54.350;10.102;2024-03-06T05:27:20;6.10;99.90
6293;DHT22;3179;54.350;10.102;2024-03-06T05:29:48;6.10;99.90
6293;DHT22;3179;54.350;10.102;2024-03-06T05:32:15;6.10;99.90
6293;DHT22;3179;54.350;10.102;2024-03-06T05:34:42;6.10;99.90
6293;DHT22;3179;54.350;10.102;2024-03-06T05:37:10;6.20;99.90
6293;DHT22;3179;54.350;10.102;2024-03-06T05:39:37;6.20;99.90
6293;DHT22;3179;54.350;10.102;2024-03-06T05:42:04;6.10;99.90
6293;DHT22;3179;54.350;10.102;2024-03-06T05:44:31;6.20;99.90
6293;DHT22;3179;54.350;10.102;2024-03-06T05:47:01;6.20;99.90
6293;DHT22;3179;54.350;10.102;2024-03-06T05:49:28;6.20;99.90
6293;DHT22;3179;54.350;10.102;2024-03-06T05:51:55;6.20;99.90
6293;DHT22;3179;54.350;10.102;2024-03-06T05:54:22;6.10;99.90
6293;DHT22;3179;54.350;10.102;2024-03-06T05:56:50;6.20;99.90
6293;DHT22;3179;54.350;10.102;2024-03-06T05:59:19;6.10;99.90
6293;DHT22;3179;54.350;10.102;2024-03-06T06:01:46;6.10;99.90
6293;DHT22;3179;54.350;10.102;2024-03-06T06:04:14;6.10;99.90
6293;DHT22;3179;54.350;10.102;2024-03-06T06:06:41;6.10;99.90
6293;DHT22;3179;54.350;10.102;2024-03-06T06:09:08;6.20;99.90
6293;DHT22;3179;54.350;10.102;2024-03-06T06:11:41;6.10;99.90
6293;DHT22;3179;54.350;10.102;2024-03-06T06:14:08;6.10;99.90
6293;DHT22;3179;54.350;10.102;2024-03-06T06:16:36;6.10;99.90
6293;DHT22;3179;54.350;10.102;2024-03-06T06:19:03;6.20;99.90
6293;DHT22;3179;54.350;10.102;2024-03-06T06:21:32;6.20;99.90
6293;DHT22;3179;54.350;10.102;2024-03-06T06:24:01;6.20;99.90
6293;DHT22;3179;54.350;10.102;2024-03-06T06:26:29;6.20;99.90
6293;DHT22;3179;54.350;10.102;2024-03-06T06:28:56;6.20;99.90
6293;DHT22;3179;54.350;10.102;2024-03-06T06:31:23;6.20;99.90
6293;DHT22;3179;54.350;10.102;2024-03-06T06:33:50;6.20;99.90
6293;DHT22;3179;54.350;10.102;2024-03-06T06:36:17;6.20;99.90
6293;DHT22;3179;54.350;10.102;2024-03-06T06:38:46;6.20;99.90
6293;DHT22;3179;54.350;10.102;2024-03-06T06:41:13;6.20;99.90
6293;DHT22;3179;54.350;10.102;2024-03-06T06:43:40;6.20;99.90
6293;DHT22;3179;54.350;10.102;2024-03-06T06:46:08;6.20;99.90
6293;DHT22;3179;54.350;10.102;2024-03-06T06:48:35;6.20;99.90
6293;DHT22;3179;54.350;10.102;2024-03-06T06:51:02;6.20;99.90
6293;DHT22;3179;54.350;10.102;2024-03-06T06:53:29;6.30;99.90
6293;DHT22;3179;54.350;10.102;2024-03-06T06:55:57;6.30;99.90
6293;DHT22;3179;54.350;10.102;2024-03-06T06:58:24;6.30;99.90
6293;DHT22;3179;54.350;10.102;2024-03-06T07:00:52;6.30;99.90
6293;DHT22;3179;54.350;10.102;2024-03-06T07:03:19;6.30;99.90
6293;DHT22;3179;54.350;10.102;2024-03-06T07:05:47;6.40;99.90
6293;DHT22;3179;54.350;10.102;2024-03-06T07:08:14;6.40;99.90
6293;DHT22;3179;54.350;10.102;2024-03-06T07:10:40;6.40;99.90
6293;DHT22;3179;54.350;10.102;2024-03-06T07:13:09;6.40;99.90
6293;DHT22;3179;54.350;10.102;2024-03-06T07:15:36;6.40;99.90
6293;DHT22;3179;54.350;10.102;2024-03-06T07:18:03;6.40;99.90
6293;DHT22;3179;54.350;10.102;2024-03-06T07:20:30;6.40;99.90
6293;DHT22;3179;54.350;10.102;2024-03-06T07:22:57;6.40;99.90
6293;DHT22;3179;54.350;10.102;2024-03-06T07:25:24;6.40;99.90
6293;DHT22;3179;54.350;10.102;2024-03-06T07:27:51;6.40;99.90
6293;DHT22;3179;54.350;10.102;2024-03-06T07:30:19;6.40;99.90
6293;DHT22;3179;54.350;10.102;2024-03-06T07:32:47;6.40;99.90
6293;DHT22;3179;54.350;10.102;2024-03-06T07:35:15;6.40;99.90
6293;DHT22;3179;54.350;10.102;2024-03-06T07:37:43;6.40;99.90
6293;DHT22;3179;54.350;10.102;2024-03-06T07:40:11;6.40;99.90
6293;DHT22;3179;54.350;10.102;2024-03-06T07:42:38;6.50;99.90
6293;DHT22;3179;54.350;10.102;2024-03-06T07:45:06;6.50;99.90
6293;DHT22;3179;54.350;10.102;2024-03-06T07:47:36;6.40;99.90
6293;DHT22;3179;54.350;10.102;2024-03-06T07:50:04;6.40;99.90
6293;DHT22;3179;54.350;10.102;2024-03-06T07:52:33;6.50;99.90
6293;DHT22;3179;54.350;10.102;2024-03-06T07:55:01;6.40;99.90
6293;DHT22;3179;54.350;10.102;2024-03-06T07:57:28;6.50;99.90
6293;DHT22;3179;54.350;10.102;2024-03-06T07:59:55;6.40;99.90
6293;DHT22;3179;54.350;10.102;2024-03-06T08:02:22;6.50;99.90
6293;DHT22;3179;54.350;10.102;2024-03-06T08:04:50;6.50;99.90
6293;DHT22;3179;54.350;10.102;2024-03-06T08:07:17;6.50;99.90
6293;DHT22;3179;54.350;10.102;2024-03-06T08:09:44;6.50;99.90
6293;DHT22;3179;54.350;10.102;2024-03-06T08:12:11;6.50;99.90
6293;DHT22;3179;54.350;10.102;2024-03-06T08:14:38;6.50;99.90
6293;DHT22;3179;54.350;10.102;2024-03-06T08:17:04;6.50;99.90
6293;DHT22;3179;54.350;10.102;2024-03-06T08:19:31;6.50;99.90
6293;DHT22;3179;54.350;10.102;2024-03-06T08:21:59;6.50;99.90
6293;DHT22;3179;54.350;10.102;2024-03-06T08:24:26;6.50;99.90
6293;DHT22;3179;54.350;10.102;2024-03-06T08:26:53;6.50;99.90
6293;DHT22;3179;54.350;10.102;2024-03-06T08:29:21;6.50;99.90
6293;DHT22;3179;54.350;10.102;2024-03-06T08:31:47;6.50;99.90
6293;DHT22;3179;54.350;10.102;2024-03-06T08:34:14;6.50;99.90
6293;DHT22;3179;54.350;10.102;2024-03-06T08:36:42;6.50;99.90
6293;DHT22;3179;54.350;10.102;2024-03-06T08:39:10;6.50;99.90
6293;DHT22;3179;54.350;10.102;2024-03-06T08:41:40;6.50;99.90
6293;DHT22;3179;54.350;10.102;2024-03-06T08:44:07;6.50;99.90
6293;DHT22;3179;54.350;10.102;2024-03-06T08:46:34;6.60;99.90
6293;DHT22;3179;54.350;10.102;2024-03-06T08:49:01;6.50;99.90
6293;DHT22;3179;54.350;10.102;2024-03-06T08:51:28;6.60;99.90
6293;DHT22;3179;54.350;10.102;2024-03-06T08:53:55;6.60;99.90
6293;DHT22;3179;54.350;10.102;2024-03-06T08:56:23;6.60;99.90
6293;DHT22;3179;54.350;10.102;2024-03-06T08:58:50;6.70;99.90
6293;DHT22;3179;54.350;10.102;2024-03-06T09:01:17;6.70;99.90
6293;DHT22;3179;54.350;10.102;2024-03-06T09:03:44;6.70;99.90
6293;DHT22;3179;54.350;10.102;2024-03-06T09:06:10;6.70;99.90
6293;DHT22;3179;54.350;10.102;2024-03-06T09:08:38;6.70;99.90
6293;DHT22;3179;54.350;10.102;2024-03-06T09:11:05;6.70;99.90
6293;DHT22;3179;54.350;10.102;2024-03-06T09:13:34;6.70;99.90
6293;DHT22;3179;54.350;10.102;2024-03-06T09:16:00;6.80;99.90
6293;DHT22;3179;54.350;10.102;2024-03-06T09:18:27;6.70;99.90
6293;DHT22;3179;54.350;10.102;2024-03-06T09:20:54;6.70;99.90
6293;DHT22;3179;54.350;10.102;2024-03-06T09:23:21;6.70;99.90
6293;DHT22;3179;54.350;10.102;2024-03-06T09:25:48;6.70;99.90
6293;DHT22;3179;54.350;10.102;2024-03-06T09:28:15;6.70;99.90
6293;DHT22;3179;54.350;10.102;2024-03-06T09:30:43;6.70;99.90
6293;DHT22;3179;54.350;10.102;2024-03-06T09:33:10;6.70;99.90
6293;DHT22;3179;54.350;10.102;2024-03-06T09:35:37;6.70;99.90
6293;DHT22;3179;54.350;10.102;2024-03-06T09:38:04;6.70;99.90
6293;DHT22;3179;54.350;10.102;2024-03-06T09:40:31;6.80;99.90
6293;DHT22;3179;54.350;10.102;2024-03-06T09:42:58;6.80;99.90
6293;DHT22;3179;54.350;10.102;2024-03-06T09:45:25;6.80;99.90
6293;DHT22;3179;54.350;10.102;2024-03-06T09:47:53;6.80;99.90
6293;DHT22;3179;54.350;10.102;2024-03-06T09:50:23;6.80;99.90
6293;DHT22;3179;54.350;10.102;2024-03-06T09:52:52;6.80;99.90
6293;DHT22;3179;54.350;10.102;2024-03-06T09:55:21;6.80;99.90
6293;DHT22;3179;54.350;10.102;2024-03-06T09:57:49;6.80;99.90
6293;DHT22;3179;54.350;10.102;2024-03-06T10:00:16;6.80;99.90
6293;DHT22;3179;54.350;10.102;2024-03-06T10:02:51;6.80;99.90
6293;DHT22;3179;54.350;10.102;2024-03-06T10:05:23;6.90;99.90
6293;DHT22;3179;54.350;10.102;2024-03-06T10:07:50;6.90;99.90
6293;DHT22;3179;54.350;10.102;2024-03-06T10:10:18;6.80;99.90
6293;DHT22;3179;54.350;10.102;2024-03-06T10:12:45;6.80;99.90
6293;DHT22;3179;54.350;10.102;2024-03-06T10:15:13;6.80;99.90
6293;DHT22;3179;54.350;10.102;2024-03-06T10:17:40;6.90;99.90
6293;DHT22;3179;54.350;10.102;2024-03-06T10:20:17;6.80;99.90
6293;DHT22;3179;54.350;10.102;2024-03-06T10:22:48;6.90;99.90
6293;DHT22;3179;54.350;10.102;2024-03-06T10:25:18;6.80;99.90
6293;DHT22;3179;54.350;10.102;2024-03-06T10:27:45;6.80;99.90
6293;DHT22;3179;54.350;10.102;2024-03-06T10:30:13;6.80;99.90
6293;DHT22;3179;54.350;10.102;2024-03-06T10:32:42;6.80;99.90
6293;DHT22;3179;54.350;10.102;2024-03-06T10:35:18;6.90;99.90
6293;DHT22;3179;54.350;10.102;2024-03-06T10:37:48;6.90;99.90
6293;DHT22;3179;54.350;10.102;2024-03-06T10:40:15;6.90;99.90
6293;DHT22;3179;54.350;10.102;2024-03-06T10:42:45;6.90;99.90
6293;DHT22;3179;54.350;10.102;2024-03-06T10:45:13;6.90;99.90
6293;DHT22;3179;54.350;10.102;2024-03-06T10:47:41;7.00;99.90
6293;DHT22;3179;54.350;10.102;2024-03-06T10:50:14;7.00;99.90
6293;DHT22;3179;54.350;10.102;2024-03-06T10:52:44;6.90;99.90
6293;DHT22;3179;54.350;10.102;2024-03-06T10:55:15;6.90;99.90
6293;DHT22;3179;54.350;10.102;2024-03-06T10:57:43;6.90;99.90
6293;DHT22;3179;54.350;10.102;2024-03-06T11:00:11;6.90;99.90
6293;DHT22;3179;54.350;10.102;2024-03-06T11:02:45;6.90;99.90
6293;DHT22;3179;54.350;10.102;2024-03-06T11:05:14;6.90;99.90
6293;DHT22;3179;54.350;10.102;2024-03-06T11:07:41;7.00;99.90
6293;DHT22;3179;54.350;10.102;2024-03-06T11:10:09;7.00;99.90
6293;DHT22;3179;54.350;10.102;2024-03-06T11:12:43;7.00;99.90
6293;DHT22;3179;54.350;10.102;2024-03-06T11:15:14;7.00;99.90
6293;DHT22;3179;54.350;10.102;2024-03-06T11:17:42;7.00;99.90
6293;DHT22;3179;54.350;10.102;2024-03-06T11:20:14;7.00;99.90
6293;DHT22;3179;54.350;10.102;2024-03-06T11:23:04;7.00;99.90
6293;DHT22;3179;54.350;10.102;2024-03-06T11:26:04;7.10;99.90
6293;DHT22;3179;54.350;10.102;2024-03-06T11:28:36;7.10;99.90
6293;DHT22;3179;54.350;10.102;2024-03-06T11:31:07;7.10;99.90
6293;DHT22;3179;54.350;10.102;2024-03-06T11:33:38;7.10;99.90
6293;DHT22;3179;54.350;10.102;2024-03-06T11:36:16;7.10;99.90
6293;DHT22;3179;54.350;10.102;2024-03-06T11:38:56;7.10;99.90
6293;DHT22;3179;54.350;10.102;2024-03-06T11:41:25;7.10;99.90
6293;DHT22;3179;54.350;10.102;2024-03-06T11:43:54;7.10;99.90
6293;DHT22;3179;54.350;10.102;2024-03-06T11:46:21;7.10;99.90
6293;DHT22;3179;54.350;10.102;2024-03-06T11:48:52;7.10;99.90
6293;DHT22;3179;54.350;10.102;2024-03-06T11:51:20;7.10;99.90
6293;DHT22;3179;54.350;10.102;2024-03-06T11:53:50;7.10;99.90
6293;DHT22;3179;54.350;10.102;2024-03-06T11:56:18;7.10;99.90
6293;DHT22;3179;54.350;10.102;2024-03-06T11:58:46;7.10;99.90
6293;DHT22;3179;54.350;10.102;2024-03-06T12:01:14;7.10;99.90
6293;DHT22;3179;54.350;10.102;2024-03-06T12:03:42;7.10;99.90
6293;DHT22;3179;54.350;10.102;2024-03-06T12:06:09;7.10;99.90
6293;DHT22;3179;54.350;10.102;2024-03-06T12:08:36;7.10;99.90
6293;DHT22;3179;54.350;10.102;2024-03-06T12:11:05;7.10;99.90
6293;DHT22;3179;54.350;10.102;2024-03-06T12:13:33;7.10;99.90
6293;DHT22;3179;54.350;10.102;2024-03-06T12:16:04;7.10;99.90
6293;DHT22;3179;54.350;10.102;2024-03-06T12:18:33;7.10;99.90
6293;DHT22;3179;54.350;10.102;2024-03-06T12:21:01;7.10;99.90
6293;DHT22;3179;54.350;10.102;2024-03-06T12:23:28;7.10;99.90
6293;DHT22;3179;54.350;10.102;2024-03-06T12:26:05;7.10;99.90
6293;DHT22;3179;54.350;10.102;2024-03-06T12:28:34;7.10;99.90
6293;DHT22;3179;54.350;10.102;2024-03-06T12:31:02;7.10;99.90
6293;DHT22;3179;54.350;10.102;2024-03-06T12:33:30;7.20;99.90
6293;DHT22;3179;54.350;10.102;2024-03-06T12:36:06;7.20;99.90
6293;DHT22;3179;54.350;10.102;2024-03-06T12:38:36;7.20;99.90
6293;DHT22;3179;54.350;10.102;2024-03-06T12:41:03;7.20;99.90
6293;DHT22;3179;54.350;10.102;2024-03-06T12:43:31;7.20;99.90
6293;DHT22;3179;54.350;10.102;2024-03-06T12:46:00;7.20;99.90
6293;DHT22;3179;54.350;10.102;2024-03-06T12:48:28;7.20;99.90
6293;DHT22;3179;54.350;10.102;2024-03-06T12:50:55;7.20;99.90
6293;DHT22;3179;54.350;10.102;2024-03-06T12:53:31;7.20;99.90
6293;DHT22;3179;54.350;10.102;2024-03-06T12:55:58;7.20;99.90
6293;DHT22;3179;54.350;10.102;2024-03-06T12:58:25;7.20;99.90
6293;DHT22;3179;54.350;10.102;2024-03-06T13:00:52;7.30;99.90
6293;DHT22;3179;54.350;10.102;2024-03-06T13:03:20;7.30;99.90
6293;DHT22;3179;54.350;10.102;2024-03-06T13:05:47;7.30;99.90
6293;DHT22;3179;54.350;10.102;2024-03-06T13:08:14;7.30;99.90
6293;DHT22;3179;54.350;10.102;2024-03-06T13:10:43;7.30;99.90
6293;DHT22;3179;54.350;10.102;2024-03-06T13:13:10;7.30;99.90
6293;DHT22;3179;54.350;10.102;2024-03-06T13:15:37;7.30;99.90
6293;DHT22;3179;54.350;10.102;2024-03-06T13:18:04;7.30;99.90
6293;DHT22;3179;54.350;10.102;2024-03-06T13:20:31;7.30;99.90
6293;DHT22;3179;54.350;10.102;2024-03-06T13:22:59;7.30;99.90
6293;DHT22;3179;54.350;10.102;2024-03-06T13:25:26;7.30;99.90
6293;DHT22;3179;54.350;10.102;2024-03-06T13:27:54;7.30;99.90
6293;DHT22;3179;54.350;10.102;2024-03-06T13:30:21;7.30;99.90
6293;DHT22;3179;54.350;10.102;2024-03-06T13:32:51;7.30;99.90
6293;DHT22;3179;54.350;10.102;2024-03-06T13:35:19;7.40;99.90
6293;DHT22;3179;54.350;10.102;2024-03-06T13:37:47;7.40;99.90
6293;DHT22;3179;54.350;10.102;2024-03-06T13:40:14;7.30;99.90
6293;DHT22;3179;54.350;10.102;2024-03-06T13:42:42;7.30;99.90
6293;DHT22;3179;54.350;10.102;2024-03-06T13:45:10;7.40;99.90
6293;DHT22;3179;54.350;10.102;2024-03-06T13:47:38;7.40;99.90
6293;DHT22;3179;54.350;10.102;2024-03-06T13:50:07;7.40;99.90
6293;DHT22;3179;54.350;10.102;2024-03-06T13:52:35;7.40;99.90
6293;DHT22;3179;54.350;10.102;2024-03-06T13:55:02;7.40;99.90
6293;DHT22;3179;54.350;10.102;2024-03-06T13:57:30;7.40;99.90
6293;DHT22;3179;54.350;10.102;2024-03-06T13:59:59;7.30;99.90
6293;DHT22;3179;54.350;10.102;2024-03-06T14:02:27;7.30;99.90
6293;DHT22;3179;54.350;10.102;2024-03-06T14:04:54;7.40;99.90
6293;DHT22;3179;54.350;10.102;2024-03-06T14:07:21;7.30;99.90
6293;DHT22;3179;54.350;10.102;2024-03-06T14:09:49;7.30;99.90
6293;DHT22;3179;54.350;10.102;2024-03-06T14:12:16;7.30;99.90
6293;DHT22;3179;54.350;10.102;2024-03-06T14:14:43;7.30;99.90
6293;DHT22;3179;54.350;10.102;2024-03-06T14:17:10;7.30;99.90
6293;DHT22;3179;54.350;10.102;2024-03-06T14:19:39;7.30;99.90
6293;DHT22;3179;54.350;10.102;2024-03-06T14:22:07;7.40;99.90
6293;DHT22;3179;54.350;10.102;2024-03-06T14:24:34;7.40;99.90
6293;DHT22;3179;54.350;10.102;2024-03-06T14:27:01;7.40;99.90
6293;DHT22;3179;54.350;10.102;2024-03-06T14:29:28;7.40;99.90
6293;DHT22;3179;54.350;10.102;2024-03-06T14:31:55;7.40;99.90
6293;DHT22;3179;54.350;10.102;2024-03-06T14:34:22;7.30;99.90
6293;DHT22;3179;54.350;10.102;2024-03-06T14:36:50;7.30;99.90
6293;DHT22;3179;54.350;10.102;2024-03-06T14:39:18;7.30;99.90
6293;DHT22;3179;54.350;10.102;2024-03-06T14:41:47;7.30;99.90
6293;DHT22;3179;54.350;10.102;2024-03-06T14:44:14;7.30;99.90
6293;DHT22;3179;54.350;10.102;2024-03-06T14:46:41;7.30;99.90
6293;DHT22;3179;54.350;10.102;2024-03-06T14:49:08;7.30;99.90
6293;DHT22;3179;54.350;10.102;2024-03-06T14:51:36;7.30;99.90
6293;DHT22;3179;54.350;10.102;2024-03-06T14:54:04;7.30;99.90
6293;DHT22;3179;54.350;10.102;2024-03-06T14:56:31;7.30;99.90
6293;DHT22;3179;54.350;10.102;2024-03-06T14:58:58;7.30;99.90
6293;DHT22;3179;54.350;10.102;2024-03-06T15:01:25;7.30;99.90
6293;DHT22;3179;54.350;10.102;2024-03-06T15:03:52;7.30;99.90
6293;DHT22;3179;54.350;10.102;2024-03-06T15:06:19;7.40;99.90
6293;DHT22;3179;54.350;10.102;2024-03-06T15:08:46;7.40;99.90
6293;DHT22;3179;54.350;10.102;2024-03-06T15:11:15;7.40;99.90
6293;DHT22;3179;54.350;10.102;2024-03-06T15:13:42;7.40;99.90
6293;DHT22;3179;54.350;10.102;2024-03-06T15:16:09;7.40;99.90
6293;DHT22;3179;54.350;10.102;2024-03-06T15:18:35;7.30;99.90
6293;DHT22;3179;54.350;10.102;2024-03-06T15:21:03;7.30;99.90
6293;DHT22;3179;54.350;10.102;2024-03-06T15:23:30;7.40;99.90
6293;DHT22;3179;54.350;10.102;2024-03-06T15:25:58;7.40;99.90
6293;DHT22;3179;54.350;10.102;2024-03-06T15:28:26;7.40;99.90
6293;DHT22;3179;54.350;10.102;2024-03-06T15:30:53;7.40;99.90
6293;DHT22;3179;54.350;10.102;2024-03-06T15:33:22;7.40;99.90
6293;DHT22;3179;54.350;10.102;2024-03-06T15:35:49;7.40;99.90
6293;DHT22;3179;54.350;10.102;2024-03-06T15:38:15;7.40;99.90
6293;DHT22;3179;54.350;10.102;2024-03-06T15:40:42;7.40;99.90
6293;DHT22;3179;54.350;10.102;2024-03-06T15:43:09;7.40;99.90
6293;DHT22;3179;54.350;10.102;2024-03-06T15:45:37;7.40;99.90
6293;DHT22;3179;54.350;10.102;2024-03-06T15:48:05;7.40;99.90
6293;DHT22;3179;54.350;10.102;2024-03-06T15:50:32;7.30;99.90
6293;DHT22;3179;54.350;10.102;2024-03-06T15:52:59;7.30;99.90
6293;DHT22;3179;54.350;10.102;2024-03-06T15:55:28;7.30;99.90
6293;DHT22;3179;54.350;10.102;2024-03-06T15:57:56;7.30;99.90
6293;DHT22;3179;54.350;10.102;2024-03-06T16:00:23;7.30;99.90
6293;DHT22;3179;54.350;10.102;2024-03-06T16:02:51;7.20;99.90
6293;DHT22;3179;54.350;10.102;2024-03-06T16:05:18;7.20;99.90